Time;durP1;ratioP1;P1;durP2;ratioP2;P2;SDS_P1;SDS_P2;PMS_P1;PMS_P2;Temp;Humidity;BMP_temperature;BMP_pressure;BME280_temperature;BME280_humidity;BME280_pressure;Samples;Min_cycle;Max_cycle;Signal;HPM_P1;HPM_P2
2022/09/09 00:01:20;;;;;;;9.85;5.68;;;;;;;;;;4996037;28;20026;-41
2022/09/09 00:04:11;;;;;;;11.40;5.68;;;;;;;;;;4996086;28;20359;-40
2022/09/09 00:06:49;;;;;;;7.10;5.47;;;;;;;;;;4972795;28;20450;-44
2022/09/09 00:09:21;;;;;;;7.20;5.70;;;;;;;;;;4995954;28;20547;-44
2022/09/09 00:11:56;;;;;;;10.68;5.80;;;;;;;;;;4996182;28;20034;-41
2022/09/09 00:14:39;;;;;;;6.07;5.13;;;;;;;;;;4995895;28;20026;-46
2022/09/09 00:17:15;;;;;;;6.68;5.63;;;;;;;;;;4996127;28;20038;-46
2022/09/09 00:19:50;;;;;;;8.93;5.60;;;;;;;;;;4996066;28;20057;-41
2022/09/09 00:22:21;;;;;;;7.75;5.47;;;;;;;;;;4996051;28;20050;-41
2022/09/09 00:24:53;;;;;;;13.98;5.72;;;;;;;;;;4995965;28;20105;-41
2022/09/09 00:27:37;;;;;;;7.82;5.28;;;;;;;;;;4995530;28;20026;-43
2022/09/09 00:30:16;;;;;;;6.00;5.40;;;;;;;;;;4995247;28;20061;-45
2022/09/09 00:32:43;;;;;;;8.40;5.63;;;;;;;;;;4995835;28;20038;-41
2022/09/09 00:35:29;;;;;;;7.28;5.85;;;;;;;;;;4995404;28;20532;-42
2022/09/09 00:38:00;;;;;;;5.93;5.20;;;;;;;;;;4995459;28;20504;-41
2022/09/09 00:40:38;;;;;;;7.60;5.10;;;;;;;;;;4995417;28;20081;-41
2022/09/09 00:43:25;;;;;;;5.15;4.53;;;;;;;;;;4995705;28;20088;-41
2022/09/09 00:46:18;;;;;;;5.07;4.53;;;;;;;;;;4995755;28;20109;-41
2022/09/09 00:49:21;;;;;;;4.60;4.20;;;;;;;;;;4995403;28;20027;-41
2022/09/09 00:51:59;;;;;;;7.78;4.15;;;;;;;;;;4995197;28;20355;-41
2022/09/09 00:55:01;;;;;;;4.72;4.18;;;;;;;;;;4995489;28;20034;-41
2022/09/09 00:57:33;;;;;;;6.10;4.38;;;;;;;;;;4995138;28;20041;-45
2022/09/09 01:00:20;;;;;;;5.18;4.57;;;;;;;;;;4995076;28;20445;-42
2022/09/09 01:03:10;;;;;;;6.63;3.88;;;;;;;;;;4993806;28;20441;-41
2022/09/09 01:05:44;;;;;;;5.72;4.10;;;;;;;;;;4995005;28;20067;-41
2022/09/09 01:08:50;;;;;;;6.10;4.25;;;;;;;;;;4994886;28;20030;-41
2022/09/09 01:11:25;;;;;;;4.90;4.13;;;;;;;;;;4994816;28;20514;-44
2022/09/09 01:14:09;;;;;;;6.60;4.32;;;;;;;;;;4994929;28;20064;-45
2022/09/09 01:16:34;;;;;;;4.93;3.63;;;;;;;;;;4995112;28;20401;-42
2022/09/09 01:19:01;;;;;;;5.40;4.00;;;;;;;;;;4994956;28;20036;-41
2022/09/09 01:21:59;;;;;;;5.10;3.95;;;;;;;;;;4994946;28;20421;-45
2022/09/09 01:25:13;;;;;;;5.30;3.50;;;;;;;;;;4994067;28;20046;-41
2022/09/09 01:27:42;;;;;;;6.57;3.83;;;;;;;;;;4968058;28;20470;-43
2022/09/09 01:30:13;;;;;;;5.88;4.43;;;;;;;;;;4994319;28;20050;-46
2022/09/09 01:32:48;;;;;;;5.82;4.32;;;;;;;;;;4994610;28;20117;-42
2022/09/09 01:35:30;;;;;;;6.88;4.68;;;;;;;;;;4994684;28;20030;-43
2022/09/09 01:37:56;;;;;;;6.07;4.28;;;;;;;;;;4994379;28;20035;-41
2022/09/09 01:40:22;;;;;;;7.80;4.32;;;;;;;;;;4994240;28;20034;-41
2022/09/09 01:42:47;;;;;;;6.53;4.28;;;;;;;;;;4994310;28;20417;-41
2022/09/09 01:45:13;;;;;;;7.97;4.10;;;;;;;;;;4994142;28;20034;-43
2022/09/09 01:47:39;;;;;;;9.00;4.28;;;;;;;;;;4994141;28;20080;-44
2022/09/09 01:50:05;;;;;;;9.02;4.30;;;;;;;;;;4994183;28;20083;-47
2022/09/09 01:52:34;;;;;;;4.88;4.43;;;;;;;;;;4994070;28;20031;-45
2022/09/09 01:54:59;;;;;;;5.35;4.60;;;;;;;;;;4994088;28;20114;-46
2022/09/09 01:57:31;;;;;;;6.05;4.47;;;;;;;;;;4994274;28;20117;-44
2022/09/09 02:00:09;;;;;;;5.35;4.25;;;;;;;;;;4994186;28;20031;-45
2022/09/09 02:02:53;;;;;;;7.95;4.93;;;;;;;;;;4993900;28;20031;-46
2022/09/09 02:05:25;;;;;;;8.57;4.28;;;;;;;;;;4993825;28;20371;-45
2022/09/09 02:08:00;;;;;;;5.63;4.28;;;;;;;;;;4993667;28;20038;-47
2022/09/09 02:10:46;;;;;;;5.65;4.60;;;;;;;;;;4993263;28;20030;-46
2022/09/09 02:13:19;;;;;;;6.40;4.45;;;;;;;;;;4993792;28;20055;-43
2022/09/09 02:16:10;;;;;;;8.48;4.50;;;;;;;;;;4993914;28;20435;-45
2022/09/09 02:18:44;;;;;;;5.07;4.03;;;;;;;;;;4965194;28;20041;-46
2022/09/09 02:21:11;;;;;;;5.75;4.80;;;;;;;;;;4993658;28;20026;-44
2022/09/09 02:23:39;;;;;;;4.72;4.10;;;;;;;;;;4993539;28;20037;-46
2022/09/09 02:26:07;;;;;;;6.30;4.57;;;;;;;;;;4993531;28;20029;-46
2022/09/09 02:28:36;;;;;;;5.10;4.53;;;;;;;;;;4993591;28;20378;-47
2022/09/09 02:31:02;;;;;;;7.60;4.25;;;;;;;;;;4993191;28;20042;-46
2022/09/09 02:33:34;;;;;;;4.70;4.13;;;;;;;;;;4993371;28;20040;-46
2022/09/09 02:36:03;;;;;;;7.55;4.38;;;;;;;;;;4992155;28;20061;-45
2022/09/09 02:38:34;;;;;;;5.18;4.68;;;;;;;;;;4993268;28;20486;-47
2022/09/09 02:41:01;;;;;;;6.22;4.72;;;;;;;;;;4993340;28;20026;-46
2022/09/09 02:43:32;;;;;;;4.85;4.45;;;;;;;;;;4993253;28;20022;-46
2022/09/09 02:46:35;;;;;;;7.88;4.20;;;;;;;;;;4993296;28;20030;-46
2022/09/09 02:49:10;;;;;;;5.95;4.63;;;;;;;;;;4993059;28;20034;-44
2022/09/09 02:52:00;;;;;;;6.63;4.40;;;;;;;;;;4993179;28;20540;-47
2022/09/09 02:54:35;;;;;;;5.72;4.70;;;;;;;;;;4993393;28;20033;-46
2022/09/09 02:57:13;;;;;;;4.28;3.90;;;;;;;;;;4993125;28;20022;-46
2022/09/09 02:59:41;;;;;;;5.35;4.53;;;;;;;;;;4993037;28;20031;-46
2022/09/09 03:02:06;;;;;;;5.15;4.07;;;;;;;;;;4993067;28;20034;-45
2022/09/09 03:04:32;;;;;;;6.13;4.45;;;;;;;;;;4992982;28;20105;-45
2022/09/09 03:06:58;;;;;;;7.47;4.70;;;;;;;;;;4993270;28;20026;-46
2022/09/09 03:09:23;;;;;;;7.50;4.88;;;;;;;;;;4992965;28;20438;-44
2022/09/09 03:11:49;;;;;;;7.70;4.80;;;;;;;;;;4992940;28;20062;-41
2022/09/09 03:14:16;;;;;;;5.63;5.00;;;;;;;;;;4992916;28;20470;-41
2022/09/09 03:16:46;;;;;;;8.60;5.75;;;;;;;;;;4992944;28;20045;-41
2022/09/09 03:19:11;;;;;;;7.80;5.30;;;;;;;;;;4993234;28;20192;-41
2022/09/09 03:21:37;;;;;;;8.13;5.50;;;;;;;;;;4996572;28;20109;-41
2022/09/09 03:24:03;;;;;;;9.43;6.50;;;;;;;;;;4996813;28;20050;-42
2022/09/09 03:26:30;;;;;;;10.00;6.30;;;;;;;;;;4996911;28;20037;-45
2022/09/09 03:28:56;;;;;;;9.00;6.57;;;;;;;;;;4996676;28;20030;-40
2022/09/09 03:31:21;;;;;;;10.05;6.85;;;;;;;;;;4996640;28;20053;-44
2022/09/09 03:33:47;;;;;;;11.82;7.35;;;;;;;;;;4996898;28;20458;-46
2022/09/09 03:36:14;;;;;;;9.95;6.20;;;;;;;;;;4996638;28;20022;-42
2022/09/09 03:38:40;;;;;;;11.25;6.60;;;;;;;;;;4996513;28;20026;-41
2022/09/09 03:41:05;;;;;;;11.80;7.00;;;;;;;;;;4996560;28;20030;-41
2022/09/09 03:43:32;;;;;;;12.88;7.72;;;;;;;;;;4996499;28;20398;-44
2022/09/09 03:45:57;;;;;;;10.93;6.93;;;;;;;;;;4996677;28;20027;-45
2022/09/09 03:48:24;;;;;;;12.80;7.82;;;;;;;;;;4996394;28;20030;-43
2022/09/09 03:50:52;;;;;;;13.40;7.03;;;;;;;;;;4996325;28;20022;-45
2022/09/09 03:53:19;;;;;;;10.20;7.40;;;;;;;;;;4996621;28;20022;-41
2022/09/09 03:55:50;;;;;;;9.73;7.00;;;;;;;;;;4996172;28;20382;-41
2022/09/09 03:58:18;;;;;;;10.65;6.60;;;;;;;;;;4996276;28;20022;-41
2022/09/09 04:01:02;;;;;;;12.20;7.68;;;;;;;;;;4996457;28;20081;-46
2022/09/09 04:03:28;;;;;;;10.73;6.90;;;;;;;;;;4996129;28;20030;-46
2022/09/09 04:05:57;;;;;;;11.57;6.82;;;;;;;;;;4996303;28;20018;-45
2022/09/09 04:08:26;;;;;;;11.30;6.85;;;;;;;;;;4996227;28;20038;-47
2022/09/09 04:10:53;;;;;;;12.77;7.00;;;;;;;;;;4996006;28;20033;-45
2022/09/09 04:13:19;;;;;;;10.63;6.47;;;;;;;;;;4996007;28;20030;-43
2022/09/09 04:15:54;;;;;;;10.13;6.53;;;;;;;;;;4995824;28;20065;-44
2022/09/09 04:18:20;;;;;;;8.73;6.60;;;;;;;;;;4995004;28;20077;-44
2022/09/09 04:20:50;;;;;;;9.15;6.55;;;;;;;;;;4996081;28;20076;-43
2022/09/09 04:23:18;;;;;;;9.85;6.22;;;;;;;;;;4995811;28;20382;-41
2022/09/09 04:25:49;;;;;;;7.80;6.28;;;;;;;;;;4995613;28;20026;-45
2022/09/09 04:28:16;;;;;;;8.60;6.10;;;;;;;;;;4995866;28;20049;-41
2022/09/09 04:30:42;;;;;;;6.75;5.90;;;;;;;;;;4995557;28;20475;-45
2022/09/09 04:33:09;;;;;;;9.55;5.68;;;;;;;;;;4994951;28;20478;-47
2022/09/09 04:35:35;;;;;;;8.98;5.30;;;;;;;;;;4995436;28;20030;-46
2022/09/09 04:38:02;;;;;;;8.73;5.78;;;;;;;;;;4995466;28;20022;-44
2022/09/09 04:40:29;;;;;;;8.32;5.20;;;;;;;;;;4995448;28;20497;-42
2022/09/09 04:42:55;;;;;;;6.70;4.88;;;;;;;;;;4995512;28;20050;-47
2022/09/09 04:45:20;;;;;;;15.63;5.13;;;;;;;;;;4995638;28;20060;-47
2022/09/09 04:47:46;;;;;;;8.15;5.40;;;;;;;;;;4995216;28;20026;-42
2022/09/09 04:50:12;;;;;;;7.63;4.85;;;;;;;;;;4995339;28;20363;-46
2022/09/09 04:52:37;;;;;;;7.53;4.63;;;;;;;;;;4995546;28;20026;-49
2022/09/09 04:55:04;;;;;;;9.20;4.50;;;;;;;;;;4995566;28;20026;-47
2022/09/09 04:57:31;;;;;;;5.30;4.30;;;;;;;;;;4995420;28;20417;-46
2022/09/09 04:59:58;;;;;;;7.22;4.22;;;;;;;;;;4994008;28;20386;-49
2022/09/09 05:02:23;;;;;;;4.80;3.80;;;;;;;;;;4995244;28;20032;-41
2022/09/09 05:04:49;;;;;;;5.97;3.88;;;;;;;;;;4995063;28;20026;-44
2022/09/09 05:07:15;;;;;;;9.23;4.15;;;;;;;;;;4993638;28;20474;-44
2022/09/09 05:09:40;;;;;;;4.25;3.83;;;;;;;;;;4995103;28;20038;-42
2022/09/09 05:12:06;;;;;;;4.25;3.90;;;;;;;;;;4994873;28;20022;-43
2022/09/09 05:14:31;;;;;;;9.48;4.13;;;;;;;;;;4994796;28;20109;-43
2022/09/09 05:16:57;;;;;;;4.88;4.00;;;;;;;;;;4994750;28;20038;-40
2022/09/09 05:19:23;;;;;;;6.82;4.13;;;;;;;;;;4994828;28;20022;-43
2022/09/09 05:21:49;;;;;;;6.80;4.57;;;;;;;;;;4994918;28;20022;-43
2022/09/09 05:24:16;;;;;;;6.65;5.20;;;;;;;;;;4994644;28;20026;-43
2022/09/09 05:26:42;;;;;;;11.48;4.93;;;;;;;;;;4994853;28;20042;-48
2022/09/09 05:29:08;;;;;;;5.55;4.30;;;;;;;;;;4994699;28;20377;-44
2022/09/09 05:31:33;;;;;;;5.35;4.00;;;;;;;;;;4994409;28;20050;-45
2022/09/09 05:33:59;;;;;;;6.18;4.00;;;;;;;;;;4994643;28;20150;-44
2022/09/09 05:36:25;;;;;;;5.05;4.13;;;;;;;;;;4994628;28;20125;-47
2022/09/09 05:38:53;;;;;;;5.93;4.50;;;;;;;;;;4994599;28;20034;-46
2022/09/09 05:41:19;;;;;;;4.55;3.80;;;;;;;;;;4994224;28;20109;-43
2022/09/09 05:43:46;;;;;;;4.93;3.33;;;;;;;;;;4993131;28;20109;-47
2022/09/09 05:46:15;;;;;;;3.90;3.20;;;;;;;;;;4994398;28;20034;-45
2022/09/09 05:48:42;;;;;;;3.95;3.40;;;;;;;;;;4994021;28;20038;-51
2022/09/09 05:51:12;;;;;;;8.73;2.97;;;;;;;;;;4994329;28;20030;-44
2022/09/09 05:53:38;;;;;;;5.65;2.85;;;;;;;;;;4994054;28;20026;-48
2022/09/09 05:56:25;;;;;;;5.50;2.80;;;;;;;;;;4994043;28;20026;-46
2022/09/09 05:58:53;;;;;;;8.25;3.00;;;;;;;;;;4993813;28;20489;-44
2022/09/09 06:01:29;;;;;;;4.57;2.70;;;;;;;;;;4993855;28;20066;-48
2022/09/09 06:03:55;;;;;;;7.43;2.47;;;;;;;;;;4994171;28;20029;-48
2022/09/09 06:06:31;;;;;;;3.63;2.63;;;;;;;;;;4993838;28;20026;-45
2022/09/09 06:08:57;;;;;;;4.13;2.20;;;;;;;;;;4993992;28;20048;-48
2022/09/09 06:11:32;;;;;;;5.43;2.78;;;;;;;;;;4993661;28;20120;-44
2022/09/09 06:13:58;;;;;;;6.95;2.42;;;;;;;;;;4993962;28;20076;-45
2022/09/09 06:16:26;;;;;;;3.40;3.10;;;;;;;;;;4993847;28;20105;-44
2022/09/09 06:18:56;;;;;;;4.97;3.08;;;;;;;;;;4993831;28;20026;-44
2022/09/09 06:21:22;;;;;;;29.25;5.80;;;;;;;;;;4993553;28;20023;-44
2022/09/09 06:23:48;;;;;;;7.78;3.80;;;;;;;;;;4993357;28;20030;-49
2022/09/09 06:26:19;;;;;;;4.70;3.40;;;;;;;;;;4993750;28;20113;-44
2022/09/09 06:28:47;;;;;;;5.53;3.95;;;;;;;;;;4993368;28;20034;-48
2022/09/09 06:31:14;;;;;;;4.65;2.80;;;;;;;;;;4993362;28;20057;-47
2022/09/09 06:33:41;;;;;;;5.53;3.20;;;;;;;;;;4993338;28;20141;-45
2022/09/09 06:36:12;;;;;;;6.65;3.50;;;;;;;;;;4993306;28;20033;-43
2022/09/09 06:38:38;;;;;;;4.07;2.92;;;;;;;;;;4993608;28;20034;-45
2022/09/09 06:41:05;;;;;;;6.72;3.08;;;;;;;;;;4993204;28;20030;-44
2022/09/09 06:43:31;;;;;;;5.22;2.78;;;;;;;;;;4993563;28;20030;-48
2022/09/09 06:46:05;;;;;;;5.00;2.47;;;;;;;;;;4996041;28;20063;-47
2022/09/09 06:48:30;;;;;;;6.18;2.70;;;;;;;;;;5002503;28;20036;-44
2022/09/09 06:51:06;;;;;;;9.60;3.67;;;;;;;;;;5001677;28;20117;-44
2022/09/09 06:53:36;;;;;;;2.80;2.60;;;;;;;;;;5002486;28;20046;-46
2022/09/09 06:56:10;;;;;;;;;;;;;;;;;;5009949;28;20100;-46
2022/09/09 06:58:43;;;;;;;6.32;3.95;;;;;;;;;;5012949;28;19914;-48
2022/09/09 07:01:12;;;;;;;3.35;2.45;;;;;;;;;;5012655;28;20030;-45
2022/09/09 07:03:38;;;;;;;4.10;2.60;;;;;;;;;;5012874;28;20467;-46
2022/09/09 07:06:05;;;;;;;3.25;2.20;;;;;;;;;;5012745;28;20485;-47
2022/09/09 07:08:31;;;;;;;2.45;1.80;;;;;;;;;;5012697;28;20131;-46
2022/09/09 07:11:04;;;;;;;4.65;2.20;;;;;;;;;;5011634;28;20026;-50
2022/09/09 07:13:31;;;;;;;5.40;2.00;;;;;;;;;;5011339;28;20029;-46
2022/09/09 07:16:10;;;;;;;3.40;1.90;;;;;;;;;;5012645;28;20061;-46
2022/09/09 07:18:35;;;;;;;;;;;;;;;;;;5012926;28;20482;-48
2022/09/09 07:21:03;;;;;;;7.20;1.88;;;;;;;;;;5012641;28;19964;-45
2022/09/09 07:23:29;;;;;;;3.03;1.63;;;;;;;;;;5012426;28;20468;-46
2022/09/09 07:25:55;;;;;;;3.85;1.60;;;;;;;;;;5012615;28;20475;-45
2022/09/09 07:28:22;;;;;;;3.00;1.67;;;;;;;;;;5012340;28;20101;-43
2022/09/09 07:30:59;;;;;;;3.63;1.88;;;;;;;;;;5011808;28;20081;-46
2022/09/09 07:33:25;;;;;;;6.10;1.65;;;;;;;;;;5005771;28;20116;-49
2022/09/09 07:35:52;;;;;;;3.65;1.60;;;;;;;;;;5004597;28;20017;-45
2022/09/09 07:38:18;;;;;;;1.52;1.30;;;;;;;;;;5002964;28;20481;-46
2022/09/09 07:40:44;;;;;;;4.88;1.70;;;;;;;;;;4997820;28;20058;-46
2022/09/09 07:43:10;;;;;;;5.65;1.60;;;;;;;;;;4993039;28;20060;-48
2022/09/09 07:45:36;;;;;;;2.60;1.50;;;;;;;;;;4992944;28;20097;-50
2022/09/09 07:48:02;;;;;;;1.88;1.48;;;;;;;;;;4992808;28;20523;-44
2022/09/09 07:50:28;;;;;;;4.90;1.88;;;;;;;;;;4992785;28;20038;-46
2022/09/09 07:52:54;;;;;;;5.40;1.50;;;;;;;;;;4992824;28;20030;-46
2022/09/09 07:55:20;;;;;;;4.20;1.67;;;;;;;;;;4992558;28;20034;-44
2022/09/09 07:57:46;;;;;;;3.33;1.50;;;;;;;;;;4990459;28;20474;-42
2022/09/09 08:00:14;;;;;;;5.28;1.60;;;;;;;;;;4991355;28;20073;-44
2022/09/09 08:02:40;;;;;;;2.90;1.67;;;;;;;;;;4992685;28;20422;-45
2022/09/09 08:05:05;;;;;;;3.00;1.52;;;;;;;;;;4992744;28;20022;-49
2022/09/09 08:07:31;;;;;;;4.72;1.70;;;;;;;;;;5005304;28;20117;-48
2022/09/09 08:09:57;;;;;;;2.55;1.60;;;;;;;;;;5015433;28;20022;-46
2022/09/09 08:12:23;;;;;;;2.92;1.38;;;;;;;;;;5014060;28;20084;-45
2022/09/09 08:14:48;;;;;;;1.92;1.50;;;;;;;;;;5015785;28;20026;-48
2022/09/09 08:17:14;;;;;;;2.60;1.35;;;;;;;;;;5015653;28;20413;-47
2022/09/09 08:19:39;;;;;;;1.63;1.45;;;;;;;;;;5015579;28;20076;-49
2022/09/09 08:22:05;;;;;;;4.03;1.50;;;;;;;;;;5001734;28;20465;-49
2022/09/09 08:24:30;;;;;;;2.33;1.70;;;;;;;;;;5003580;28;20021;-47
2022/09/09 08:26:56;;;;;;;2.60;1.30;;;;;;;;;;4998506;28;20029;-47
2022/09/09 08:29:22;;;;;;;2.60;1.42;;;;;;;;;;4994341;28;20042;-46
2022/09/09 08:31:49;;;;;;;3.35;1.40;;;;;;;;;;4974788;28;20043;-46
2022/09/09 08:34:15;;;;;;;3.97;1.70;;;;;;;;;;4974524;28;20026;-43
2022/09/09 08:36:43;;;;;;;3.83;1.60;;;;;;;;;;4974755;28;20080;-44
2022/09/09 08:39:11;;;;;;;2.87;2.00;;;;;;;;;;4977105;28;20173;-47
2022/09/09 08:42:03;;;;;;;2.38;1.40;;;;;;;;;;4983673;28;20031;-42
2022/09/09 08:44:31;;;;;;;4.30;1.65;;;;;;;;;;4984800;28;20033;-41
2022/09/09 08:47:14;;;;;;;3.53;1.92;;;;;;;;;;4991741;28;20030;-43
2022/09/09 08:50:13;;;;;;;4.32;1.88;;;;;;;;;;4981451;28;20054;-46
2022/09/09 08:52:47;;;;;;;4.65;1.70;;;;;;;;;;4983589;28;20042;-45
2022/09/09 08:55:18;;;;;;;2.33;1.80;;;;;;;;;;4982983;28;20088;-42
2022/09/09 08:57:45;;;;;;;2.50;1.75;;;;;;;;;;4977097;28;20061;-47
2022/09/09 09:00:11;;;;;;;1.58;1.40;;;;;;;;;;4977865;28;20053;-41
2022/09/09 09:03:05;;;;;;;14.07;2.15;;;;;;;;;;4981883;28;20034;-45
2022/09/09 09:05:35;;;;;;;2.92;1.70;;;;;;;;;;4981996;28;20026;-47
2022/09/09 09:08:13;;;;;;;2.28;1.90;;;;;;;;;;4981494;28;20580;-47
2022/09/09 09:10:46;;;;;;;2.50;1.70;;;;;;;;;;4974079;28;20038;-43
2022/09/09 09:13:15;;;;;;;3.05;2.20;;;;;;;;;;4974112;28;20042;-42
2022/09/09 09:15:43;;;;;;;5.63;2.17;;;;;;;;;;4973743;28;20513;-47
2022/09/09 09:18:12;;;;;;;2.65;1.35;;;;;;;;;;4973421;28;20027;-47
2022/09/09 09:20:59;;;;;;;2.05;1.30;;;;;;;;;;4973960;28;20475;-49
2022/09/09 09:23:40;;;;;;;4.85;2.72;;;;;;;;;;4973906;28;20073;-45
2022/09/09 09:26:09;;;;;;;3.03;1.80;;;;;;;;;;4973724;28;20027;-48
2022/09/09 09:28:36;;;;;;;2.88;1.85;;;;;;;;;;4973507;28;20360;-46
2022/09/09 09:31:06;;;;;;;2.97;2.00;;;;;;;;;;4986694;28;20057;-48
2022/09/09 09:33:41;;;;;;;4.10;2.05;;;;;;;;;;4992838;28;20439;-44
2022/09/09 09:36:08;;;;;;;4.38;2.15;;;;;;;;;;4992753;28;20192;-45
2022/09/09 09:38:34;;;;;;;3.97;2.33;;;;;;;;;;4992811;28;20030;-48
2022/09/09 09:41:01;;;;;;;3.65;2.10;;;;;;;;;;4992577;28;20030;-47
2022/09/09 09:43:39;;;;;;;10.43;3.75;;;;;;;;;;4992888;28;20065;-43
2022/09/09 09:46:17;;;;;;;3.83;2.10;;;;;;;;;;4992858;28;20121;-48
2022/09/09 09:48:45;;;;;;;5.40;2.25;;;;;;;;;;4992542;28;20049;-42
2022/09/09 09:51:15;;;;;;;2.65;1.90;;;;;;;;;;4992797;28;20034;-46
2022/09/09 09:53:41;;;;;;;2.60;1.80;;;;;;;;;;4992339;28;20030;-43
2022/09/09 09:56:10;;;;;;;4.28;3.50;;;;;;;;;;4992474;28;20034;-47
2022/09/09 09:58:44;;;;;;;2.00;1.77;;;;;;;;;;4991003;28;20027;-45
2022/09/09 10:01:42;;;;;;;5.78;1.77;;;;;;;;;;4990271;28;20045;-46
2022/09/09 10:04:23;;;;;;;2.20;1.88;;;;;;;;;;4957855;28;20037;-44
2022/09/09 10:06:50;;;;;;;2.13;1.70;;;;;;;;;;4989946;28;20269;-43
2022/09/09 10:09:28;;;;;;;3.85;2.35;;;;;;;;;;4989614;28;20038;-45
2022/09/09 10:12:08;;;;;;;4.53;1.80;;;;;;;;;;4990522;28;20026;-43
2022/09/09 10:14:51;;;;;;;3.92;1.67;;;;;;;;;;4991049;28;20034;-47
2022/09/09 10:18:07;;;;;;;2.42;1.50;;;;;;;;;;4990791;28;20030;-45
2022/09/09 10:21:02;;;;;;;5.65;2.00;;;;;;;;;;4949882;29;20080;-44
2022/09/09 10:23:46;;;;;;;2.85;1.85;;;;;;;;;;4991328;28;20034;-45
2022/09/09 10:26:17;;;;;;;4.68;2.10;;;;;;;;;;4992038;28;20034;-45
2022/09/09 10:29:07;;;;;;;8.15;2.13;;;;;;;;;;4991788;28;20034;-43
2022/09/09 10:31:57;;;;;;;4.70;2.10;;;;;;;;;;4991225;28;20546;-45
2022/09/09 10:34:59;;;;;;;5.80;2.20;;;;;;;;;;4992106;28;20034;-44
2022/09/09 10:37:46;;;;;;;7.22;2.30;;;;;;;;;;4991500;28;20100;-44
2022/09/09 10:40:32;;;;;;;4.03;2.42;;;;;;;;;;4991188;28;20041;-45
2022/09/09 10:43:31;;;;;;;5.13;2.38;;;;;;;;;;4991737;28;20030;-44
2022/09/09 10:46:22;;;;;;;4.72;2.35;;;;;;;;;;4991568;28;20034;-46
2022/09/09 10:48:57;;;;;;;4.10;1.77;;;;;;;;;;4991910;28;20351;-43
2022/09/09 10:51:28;;;;;;;3.25;1.98;;;;;;;;;;4991413;28;20029;-43
2022/09/09 10:54:31;;;;;;;5.10;1.85;;;;;;;;;;4991843;28;20542;-47
2022/09/09 10:57:03;;;;;;;5.63;2.20;;;;;;;;;;4991434;28;20038;-44
2022/09/09 10:59:35;;;;;;;6.90;2.47;;;;;;;;;;4991726;28;20088;-45
2022/09/09 11:02:19;;;;;;;6.35;2.50;;;;;;;;;;4991689;28;20035;-45
2022/09/09 11:04:52;;;;;;;5.10;2.55;;;;;;;;;;4991694;28;20026;-49
2022/09/09 11:07:35;;;;;;;3.88;2.10;;;;;;;;;;4991306;28;20518;-44
2022/09/09 11:10:06;;;;;;;3.05;2.00;;;;;;;;;;4991722;28;20084;-46
2022/09/09 11:12:36;;;;;;;6.57;2.80;;;;;;;;;;4991675;28;20030;-43
2022/09/09 11:15:14;;;;;;;3.83;1.75;;;;;;;;;;4990372;28;20030;-44
2022/09/09 11:17:46;;;;;;;3.28;1.40;;;;;;;;;;4991295;28;20031;-43
2022/09/09 11:20:13;;;;;;;3.17;1.38;;;;;;;;;;4990249;28;20101;-52
2022/09/09 11:22:44;;;;;;;1.38;0.90;;;;;;;;;;4991552;28;20359;-45
2022/09/09 11:25:15;;;;;;;1.40;1.30;;;;;;;;;;4991270;28;20022;-44
2022/09/09 11:28:09;;;;;;;1.40;1.30;;;;;;;;;;4991325;28;20022;-48
2022/09/09 11:30:50;;;;;;;8.40;1.05;;;;;;;;;;4990996;28;20050;-47
2022/09/09 11:33:33;;;;;;;0.80;0.80;;;;;;;;;;4991501;28;20038;-43
2022/09/09 11:36:30;;;;;;;4.50;0.80;;;;;;;;;;4991386;28;20034;-47
2022/09/09 11:39:31;;;;;;;0.90;0.70;;;;;;;;;;4991405;28;20034;-46
2022/09/09 11:42:23;;;;;;;3.35;1.10;;;;;;;;;;4958673;28;20394;-46
2022/09/09 11:44:49;;;;;;;0.82;0.82;;;;;;;;;;4993339;28;20031;-42
2022/09/09 11:47:17;;;;;;;2.92;1.30;;;;;;;;;;4994746;28;20536;-45
2022/09/09 11:49:43;;;;;;;1.67;1.35;;;;;;;;;;4994569;28;20356;-43
2022/09/09 11:52:35;;;;;;;0.70;0.70;;;;;;;;;;4994466;28;20160;-42
2022/09/09 11:55:32;;;;;;;8.77;1.75;;;;;;;;;;4994753;28;20557;-46
2022/09/09 11:57:59;;;;;;;3.72;1.30;;;;;;;;;;4994699;28;20030;-46
2022/09/09 12:00:41;;;;;;;0.95;0.85;;;;;;;;;;4994534;28;20109;-46
2022/09/09 12:03:45;;;;;;;1.88;1.10;;;;;;;;;;4993922;28;20034;-48
2022/09/09 12:06:28;;;;;;;2.25;1.30;;;;;;;;;;4994947;28;20077;-48
2022/09/09 12:08:58;;;;;;;3.05;0.85;;;;;;;;;;4994633;28;20045;-50
2022/09/09 12:11:29;;;;;;;2.05;0.80;;;;;;;;;;4994747;28;20026;-47
2022/09/09 12:13:57;;;;;;;0.60;0.60;;;;;;;;;;4994004;28;20026;-46
2022/09/09 12:16:35;;;;;;;2.08;1.25;;;;;;;;;;4994261;28;20031;-43
2022/09/09 12:19:14;;;;;;;1.52;0.63;;;;;;;;;;4994024;28;20126;-46
2022/09/09 12:21:49;;;;;;;5.40;1.30;;;;;;;;;;4994338;28;20512;-48
2022/09/09 12:24:28;;;;;;;1.00;0.70;;;;;;;;;;4994466;28;20041;-46
2022/09/09 12:27:01;;;;;;;2.58;1.25;;;;;;;;;;4994327;28;20027;-45
2022/09/09 12:29:34;;;;;;;3.05;0.77;;;;;;;;;;4994223;28;20038;-42
2022/09/09 12:32:11;;;;;;;0.70;0.70;;;;;;;;;;4994351;28;20422;-41
2022/09/09 12:34:49;;;;;;;0.60;0.60;;;;;;;;;;4994124;28;20492;-42
2022/09/09 12:37:35;;;;;;;1.20;0.50;;;;;;;;;;4994059;28;20030;-46
2022/09/09 12:40:04;;;;;;;0.75;0.52;;;;;;;;;;4993699;28;20462;-41
2022/09/09 12:42:33;;;;;;;3.92;0.98;;;;;;;;;;4994176;28;20070;-40
2022/09/09 12:45:16;;;;;;;2.22;0.50;;;;;;;;;;4993989;28;20034;-44
2022/09/09 12:47:50;;;;;;;1.90;0.90;;;;;;;;;;4993647;28;20034;-43
2022/09/09 12:50:21;;;;;;;0.70;0.63;;;;;;;;;;4994036;28;20038;-42
2022/09/09 12:52:48;;;;;;;1.90;0.70;;;;;;;;;;4992970;28;20172;-42
2022/09/09 12:55:28;;;;;;;0.52;0.52;;;;;;;;;;4993203;28;20121;-41
2022/09/09 12:57:53;;;;;;;0.57;0.57;;;;;;;;;;4995149;28;20127;-42
2022/09/09 13:00:22;;;;;;;1.95;1.23;;;;;;;;;;4994970;28;20068;-40
2022/09/09 13:02:54;;;;;;;2.67;1.25;;;;;;;;;;4995261;28;20048;-43
2022/09/09 13:05:34;;;;;;;0.60;0.60;;;;;;;;;;4994567;28;20026;-43
2022/09/09 13:08:04;;;;;;;3.08;0.50;;;;;;;;;;4994288;28;20060;-42
2022/09/09 13:10:39;;;;;;;0.47;0.47;;;;;;;;;;4994886;28;20121;-44
2022/09/09 13:13:17;;;;;;;0.85;0.68;;;;;;;;;;4994908;28;20018;-42
2022/09/09 13:15:50;;;;;;;3.30;0.98;;;;;;;;;;4995140;28;20058;-42
2022/09/09 13:18:21;;;;;;;4.32;0.80;;;;;;;;;;4993556;28;20433;-43
2022/09/09 13:20:48;;;;;;;8.15;0.88;;;;;;;;;;4994768;28;20029;-42
2022/09/09 13:23:15;;;;;;;2.35;1.02;;;;;;;;;;4994675;28;20531;-43
2022/09/09 13:25:40;;;;;;;0.85;0.57;;;;;;;;;;4994935;28;20030;-42
2022/09/09 13:28:21;;;;;;;1.10;0.57;;;;;;;;;;4994508;28;20482;-41
2022/09/09 13:31:00;;;;;;;0.50;0.50;;;;;;;;;;4994378;28;20053;-41
2022/09/09 13:33:39;;;;;;;3.00;0.90;;;;;;;;;;4994554;28;20359;-43
2022/09/09 13:36:09;;;;;;;2.88;0.70;;;;;;;;;;4994426;28;20045;-41
2022/09/09 13:38:52;;;;;;;0.60;0.57;;;;;;;;;;4994401;28;20109;-45
2022/09/09 13:41:23;;;;;;;0.47;0.47;;;;;;;;;;4994415;28;20030;-42
2022/09/09 13:43:49;;;;;;;3.83;0.88;;;;;;;;;;4994499;28;20364;-43
2022/09/09 13:46:34;;;;;;;1.48;0.60;;;;;;;;;;4994151;28;20035;-42
2022/09/09 13:49:21;;;;;;;1.02;0.80;;;;;;;;;;4994300;28;20034;-41
2022/09/09 13:51:50;;;;;;;0.47;0.47;;;;;;;;;;4994107;28;20504;-41
2022/09/09 13:54:18;;;;;;;0.73;0.60;;;;;;;;;;4993031;28;20121;-41
2022/09/09 13:56:44;;;;;;;1.67;0.60;;;;;;;;;;4994332;28;20548;-41
2022/09/09 13:59:14;;;;;;;1.58;0.80;;;;;;;;;;4994236;28;20066;-41
2022/09/09 14:01:39;;;;;;;0.70;0.60;;;;;;;;;;4994213;28;20026;-42
2022/09/09 14:04:08;;;;;;;4.05;0.55;;;;;;;;;;4993737;28;20454;-42
2022/09/09 14:06:39;;;;;;;2.70;0.70;;;;;;;;;;4993436;28;20038;-42
2022/09/09 14:09:11;;;;;;;0.65;0.55;;;;;;;;;;4993770;28;20276;-41
2022/09/09 14:11:38;;;;;;;3.60;0.60;;;;;;;;;;4993957;28;20429;-42
2022/09/09 14:14:04;;;;;;;0.50;0.50;;;;;;;;;;4993716;28;20033;-42
2022/09/09 14:16:30;;;;;;;4.28;0.80;;;;;;;;;;4993630;28;20105;-42
2022/09/09 14:18:59;;;;;;;4.65;0.70;;;;;;;;;;4993315;28;20125;-42
2022/09/09 14:21:26;;;;;;;0.83;0.60;;;;;;;;;;4993843;28;20026;-42
2022/09/09 14:23:54;;;;;;;1.75;1.13;;;;;;;;;;4993792;28;20037;-43
2022/09/09 14:26:24;;;;;;;0.93;0.67;;;;;;;;;;4993610;28;20076;-41
2022/09/09 14:28:50;;;;;;;0.60;0.60;;;;;;;;;;4993478;28;20050;-41
2022/09/09 14:31:17;;;;;;;3.20;0.70;;;;;;;;;;4993235;28;20316;-41
2022/09/09 14:33:43;;;;;;;0.90;0.60;;;;;;;;;;4993357;28;20050;-41
2022/09/09 14:36:08;;;;;;;3.88;0.60;;;;;;;;;;4993664;28;20022;-41
2022/09/09 14:38:39;;;;;;;2.25;0.80;;;;;;;;;;4993307;28;20477;-42
2022/09/09 14:41:16;;;;;;;0.95;0.80;;;;;;;;;;4993345;28;20022;-42
2022/09/09 14:43:42;;;;;;;1.30;0.60;;;;;;;;;;4993573;28;20038;-44
2022/09/09 14:46:12;;;;;;;0.70;0.70;;;;;;;;;;4993439;28;20389;-42
2022/09/09 14:48:40;;;;;;;0.90;0.70;;;;;;;;;;4991809;28;20037;-41
2022/09/09 14:51:15;;;;;;;4.22;0.80;;;;;;;;;;4992138;28;20061;-42
2022/09/09 14:53:41;;;;;;;2.35;0.70;;;;;;;;;;4993034;28;20026;-41
2022/09/09 14:56:10;;;;;;;2.08;0.70;;;;;;;;;;4993320;28;20022;-44
2022/09/09 14:58:37;;;;;;;1.02;0.70;;;;;;;;;;4993380;28;20386;-42
2022/09/09 15:01:10;;;;;;;4.28;0.60;;;;;;;;;;4992992;28;20360;-41
2022/09/09 15:03:37;;;;;;;0.73;0.73;;;;;;;;;;4993346;28;20034;-41
2022/09/09 15:06:10;;;;;;;1.30;0.68;;;;;;;;;;4993186;28;20022;-41
2022/09/09 15:08:37;;;;;;;0.82;0.68;;;;;;;;;;4993028;28;20038;-41
2022/09/09 15:11:05;;;;;;;2.33;0.80;;;;;;;;;;4992991;28;20422;-42
2022/09/09 15:13:31;;;;;;;1.98;0.70;;;;;;;;;;4992997;28;20092;-42
2022/09/09 15:16:07;;;;;;;1.92;0.70;;;;;;;;;;4993669;28;20462;-41